Dog Valley, California Weather observations

Data are for 10 minute period ending at time listed.
 Day   Time    Ave.   Ave.  Ave.  Vector   Max.   Total    Solar   
  of    of     Air    Rel.  Wind   Wind    Wind  Precip.   Rad.    
Year   Day     Temp.  Hum.  Speed  Dir.    Gust                    
2014   (PST)    F      %     mph   deg.    mph     in.     W/m2    
------------------------------------------------------------------- 
 262    1:00   44.0    77    0.0   254      2.0    3.08       0  
 262    2:00   41.0    80    0.0   253      1.0    3.08       0  
 262    3:00   40.0    82    0.0   199      2.0    3.08       0  
 262    4:00   39.0    84    0.0   148      1.0    3.08       0  
 262    5:00   38.0    87    0.0   283      1.0    3.08       0  
 262    6:00   38.0    90    0.0   286      1.0    3.08       0  
 262    7:00   40.0    88    0.0   286      1.0    3.08      25  
 262    8:00   52.0    65    0.0   112      2.0    3.08     169  
 262    9:00   65.0    41    2.0   109      5.0    3.08     391  
 262   10:00   65.0    40    4.0    57     10.0    3.08     394  
 262   11:00   73.0    34    2.0   122      9.0    3.08     680  
 262   12:00   74.0    31    3.0   127      9.0    3.08     767  
 262   13:00   76.0    29    3.0   127      8.0    3.08     782  
 262   14:00   79.0    26    2.0   143     10.0    3.08     737  
 262   15:00   78.0    25    3.0   116      8.0    3.08     644  
 262   16:00   73.0    27    3.0    19     11.0    3.08     150  
 262   17:00   72.0    27    1.0    76     12.0    3.08      67  
 262   18:00   69.0    30    1.0    23      7.0    3.08      17  
 262   19:00   58.0    42    1.0   291      3.0    3.08       2  
 262   20:00   55.0    47    0.0   296      3.0    3.08       0  
 262   21:00   52.0    53    0.0   274      1.0    3.08       0  
 262   22:00   50.0    56    0.0   264      2.0    3.08       0  
 262   23:00   49.0    59    0.0   327      3.0    3.08       0  
 263    0:00   47.0    61    1.0   302      3.0    3.08       0  

Return to Dog Valley, California graphs page.


Western Regional Climate Center,wrcc@dri.edu